createdAt,value
2022-07-26T00:00:12.488Z,98325.66
2022-07-26T00:02:39.402Z,98330.81
2022-07-26T00:05:14.514Z,98324.25
2022-07-26T00:07:41.522Z,98333.75
2022-07-26T00:10:08.404Z,98335.59
2022-07-26T00:12:35.261Z,98336.78
2022-07-26T00:15:02.091Z,98332.03
2022-07-26T00:17:28.788Z,98332.25
2022-07-26T00:19:55.354Z,98335.81
2022-07-26T00:22:39.359Z,98334.53
2022-07-26T00:25:08.120Z,98334.81
2022-07-26T00:27:38.431Z,98340.19
2022-07-26T00:30:07.518Z,98339.38
2022-07-26T00:32:34.891Z,98344.84
2022-07-26T00:35:01.611Z,98341.94
2022-07-26T00:37:28.248Z,98344.53
2022-07-26T00:39:54.872Z,98348.50
2022-07-26T00:42:21.598Z,98356.72
2022-07-26T00:44:49.004Z,98356.25
2022-07-26T00:47:16.390Z,98354.66
2022-07-26T00:49:43.201Z,98363.34
2022-07-26T00:52:11.071Z,98363.34
2022-07-26T00:54:39.173Z,98358.38
2022-07-26T00:57:06.125Z,98362.47
2022-07-26T00:59:32.989Z,98360.06
2022-07-26T01:01:59.907Z,98365.44
2022-07-26T01:04:27.356Z,98359.75
2022-07-26T01:06:54.475Z,98365.44
2022-07-26T01:09:21.306Z,98372.59
2022-07-26T01:11:48.097Z,98379.78
2022-07-26T01:14:16.412Z,98380.38
2022-07-26T01:16:44.045Z,98381.97
2022-07-26T01:19:10.749Z,98379.16
2022-07-26T01:21:37.424Z,98370.06
2022-07-26T01:24:04.514Z,98375.66
2022-07-26T01:26:31.317Z,98379.72
2022-07-26T01:28:57.867Z,98379.63
2022-07-26T01:31:24.622Z,98375.66
2022-07-26T01:33:51.413Z,98375.59
2022-07-26T01:36:18.949Z,98389.66
2022-07-26T01:38:45.652Z,98389.16
2022-07-26T01:41:12.259Z,98399.44
2022-07-26T01:43:39.223Z,98395.06
2022-07-26T01:46:09.771Z,98398.09
2022-07-26T01:48:37.157Z,98399.25
2022-07-26T01:51:03.969Z,98391.59
2022-07-26T01:53:30.667Z,98400.22
2022-07-26T01:55:57.530Z,98401.38
2022-07-26T01:58:24.726Z,98411.25
2022-07-26T02:00:51.536Z,98404.16
2022-07-26T02:03:18.185Z,98405.59
2022-07-26T02:05:44.787Z,98411.25
2022-07-26T02:08:11.638Z,98412.44
2022-07-26T02:10:58.038Z,98409.81
2022-07-26T02:13:25.126Z,98413.69
2022-07-26T02:15:51.824Z,98417.53
2022-07-26T02:18:18.439Z,98421.25
2022-07-26T02:20:45.016Z,98424.72
2022-07-26T02:23:12.168Z,98427.69
2022-07-26T02:25:38.857Z,98429.22
2022-07-26T02:28:05.914Z,98426.13
2022-07-26T02:30:32.460Z,98424.59
2022-07-26T02:33:00.368Z,98426.41
2022-07-26T02:35:27.231Z,98425.25
2022-07-26T02:37:53.854Z,98422.56
2022-07-26T02:40:20.475Z,98424.59
2022-07-26T02:42:47.127Z,98436.78
2022-07-26T02:45:13.825Z,98435.06
2022-07-26T02:47:50.569Z,98434.09
2022-07-26T02:50:18.714Z,98427.88
2022-07-26T02:52:47.990Z,98434.84
2022-07-26T02:55:16.607Z,98439.66
2022-07-26T02:57:45.513Z,98435.91
2022-07-26T03:00:16.769Z,98435.44
2022-07-26T03:02:43.543Z,98433.41
2022-07-26T03:05:10.613Z,98440.41
2022-07-26T03:07:37.371Z,98436.47
2022-07-26T03:10:05.636Z,98439.16
2022-07-26T03:12:32.265Z,98445.03
2022-07-26T03:14:58.839Z,98447.53
2022-07-26T03:17:25.564Z,98453.53
2022-07-26T03:19:52.309Z,98459.50
2022-07-26T03:22:19.068Z,98463.47
2022-07-26T03:24:45.615Z,98455.03
2022-07-26T03:27:12.214Z,98449.66
2022-07-26T03:29:38.842Z,98448.28
2022-07-26T03:32:05.773Z,98447.84
2022-07-26T03:34:32.667Z,98452.06
2022-07-26T03:36:59.372Z,98454.91
2022-07-26T03:39:26.169Z,98452.78
2022-07-26T03:41:52.877Z,98447.63
2022-07-26T03:44:19.660Z,98463.53
2022-07-26T03:46:46.507Z,98466.84
2022-07-26T03:49:16.588Z,98465.78
2022-07-26T03:51:44.033Z,98470.06
2022-07-26T03:54:11.096Z,98472.94
2022-07-26T03:56:38.045Z,98466.00
2022-07-26T03:59:06.921Z,98466.56
2022-07-26T04:01:34.925Z,98467.41
2022-07-26T04:04:02.254Z,98471.41
2022-07-26T04:06:29.093Z,98472.78
2022-07-26T04:08:55.705Z,98474.06
2022-07-26T04:11:22.245Z,98468.19
2022-07-26T04:13:53.188Z,98478.03
2022-07-26T04:16:19.847Z,98476.59
2022-07-26T04:18:46.573Z,98470.47
2022-07-26T04:21:13.143Z,98470.78
2022-07-26T04:23:39.716Z,98466.00
2022-07-26T04:26:06.629Z,98466.63
2022-07-26T04:28:33.653Z,98469.03
2022-07-26T04:31:00.789Z,98473.09
2022-07-26T04:33:28.030Z,98478.94
2022-07-26T04:35:54.868Z,98474.97
2022-07-26T04:38:21.627Z,98481.91
2022-07-26T04:40:49.945Z,98483.00
2022-07-26T04:43:16.972Z,98484.69
2022-07-26T04:45:47.255Z,98491.16
2022-07-26T04:48:14.644Z,98486.69
2022-07-26T04:50:41.723Z,98495.50
2022-07-26T04:53:10.759Z,98497.41
2022-07-26T04:55:38.046Z,98494.28
2022-07-26T04:58:04.882Z,98498.53
2022-07-26T05:00:31.604Z,98495.63
2022-07-26T05:02:59.907Z,98493.97
2022-07-26T05:05:29.949Z,98496.91
2022-07-26T05:07:59.173Z,98501.97
2022-07-26T05:10:32.012Z,98502.50
2022-07-26T05:12:58.751Z,98502.13
2022-07-26T05:15:25.696Z,98508.69
2022-07-26T05:18:06.839Z,98501.66
2022-07-26T05:20:34.840Z,98498.22
2022-07-26T05:23:01.532Z,98493.31
2022-07-26T05:25:28.576Z,98502.78
2022-07-26T05:27:55.228Z,98500.22
2022-07-26T05:30:22.065Z,98488.47
2022-07-26T05:32:48.641Z,98478.09
2022-07-26T05:35:15.634Z,98489.41
2022-07-26T05:37:43.256Z,98488.28
2022-07-26T05:40:10.984Z,98488.53
2022-07-26T05:42:37.868Z,98481.25
2022-07-26T05:45:05.689Z,98490.94
2022-07-26T05:47:32.554Z,98485.25
2022-07-26T05:49:59.211Z,98490.91
2022-07-26T05:52:25.826Z,98483.72
2022-07-26T05:54:52.470Z,98482.47
2022-07-26T05:57:19.016Z,98484.44
2022-07-26T05:59:45.612Z,98485.25
2022-07-26T06:02:12.268Z,98482.16
2022-07-26T06:04:39.170Z,98484.63
2022-07-26T06:07:05.797Z,98483.19
2022-07-26T06:09:32.505Z,98486.94
2022-07-26T06:11:59.510Z,98475.88
2022-07-26T06:14:26.147Z,98474.13
2022-07-26T06:16:52.808Z,98479.97
2022-07-26T06:19:19.426Z,98476.03
2022-07-26T06:21:46.064Z,98484.28
2022-07-26T06:24:13.166Z,98490.38
2022-07-26T06:26:40.123Z,98491.81
2022-07-26T06:29:06.762Z,98497.13
2022-07-26T06:31:33.797Z,98491.41
2022-07-26T06:34:00.436Z,98492.38
2022-07-26T06:36:30.475Z,98487.97
2022-07-26T06:38:58.096Z,98487.53
2022-07-26T06:41:24.938Z,98494.19
2022-07-26T06:43:51.767Z,98502.81
2022-07-26T06:46:19.484Z,98495.50
2022-07-26T06:48:47.629Z,98505.88
2022-07-26T06:51:20.011Z,98507.72
2022-07-26T06:53:46.670Z,98501.16
2022-07-26T06:56:14.872Z,98498.75
2022-07-26T06:58:42.374Z,98490.78
2022-07-26T07:01:09.267Z,98494.66
2022-07-26T07:03:36.162Z,98494.09
2022-07-26T07:06:03.333Z,98482.31
2022-07-26T07:08:29.887Z,98483.34
2022-07-26T07:10:56.725Z,98480.59
2022-07-26T07:13:23.304Z,98472.38
2022-07-26T07:15:49.914Z,98473.38
2022-07-26T07:18:16.500Z,98468.00
2022-07-26T07:20:43.100Z,98476.22
2022-07-26T07:23:09.737Z,98472.16
2022-07-26T07:25:36.374Z,98477.50
2022-07-26T07:28:03.252Z,98478.19
2022-07-26T07:30:29.913Z,98477.81
2022-07-26T07:32:56.753Z,98482.97
2022-07-26T07:35:23.662Z,98474.72
2022-07-26T07:37:53.418Z,98477.34
2022-07-26T07:40:21.582Z,98489.19
2022-07-26T07:42:48.228Z,98488.19
2022-07-26T07:45:14.841Z,98489.34
2022-07-26T07:47:41.604Z,98486.50
2022-07-26T07:50:08.933Z,98487.91
2022-07-26T07:52:35.549Z,98488.94
2022-07-26T07:55:37.092Z,98491.28
2022-07-26T07:57:49.889Z,98493.72
2022-07-26T08:00:19.114Z,98483.88
2022-07-26T08:02:46.912Z,98490.75
2022-07-26T08:05:15.406Z,98483.81
2022-07-26T08:07:42.519Z,98488.25
2022-07-26T08:10:10.272Z,98481.22
2022-07-26T08:12:37.364Z,98470.28
2022-07-26T08:15:07.356Z,98485.09
2022-07-26T08:17:38.089Z,98476.13
2022-07-26T08:20:08.949Z,98470.50
2022-07-26T08:22:41.813Z,98461.44
2022-07-26T08:25:09.293Z,98460.72
2022-07-26T08:27:40.809Z,98484.66
2022-07-26T08:30:08.596Z,98478.09
2022-07-26T08:32:35.708Z,98479.63
2022-07-26T08:35:19.632Z,98478.50
2022-07-26T08:37:46.980Z,98491.50
2022-07-26T08:40:14.125Z,98493.72
2022-07-26T08:42:40.795Z,98496.38
2022-07-26T08:45:07.897Z,98499.53
2022-07-26T08:47:37.697Z,98495.53
2022-07-26T08:50:07.618Z,98487.88
2022-07-26T08:52:34.773Z,98474.22
2022-07-26T08:55:01.355Z,98478.09
2022-07-26T08:57:27.915Z,98465.69
2022-07-26T09:00:21.331Z,98466.44
2022-07-26T09:02:48.690Z,98462.13
2022-07-26T09:05:18.020Z,98480.47
2022-07-26T09:07:45.259Z,98487.41
2022-07-26T09:10:16.119Z,98500.53
2022-07-26T09:12:44.078Z,98505.34
2022-07-26T09:15:28.536Z,98505.25
2022-07-26T09:17:57.523Z,98486.97
2022-07-26T09:20:29.191Z,98485.25
2022-07-26T09:23:03.813Z,98478.69
2022-07-26T09:25:36.817Z,98477.56
2022-07-26T09:28:05.008Z,98474.41
2022-07-26T09:30:32.429Z,98477.63
2022-07-26T09:33:03.453Z,98475.19
2022-07-26T09:35:52.270Z,98482.66
2022-07-26T09:38:19.796Z,98474.75
2022-07-26T09:40:50.726Z,98491.63
2022-07-26T09:43:23.986Z,98491.16
2022-07-26T09:46:07.068Z,98485.13
2022-07-26T09:49:07.027Z,98486.91
2022-07-26T09:51:42.617Z,98474.41
2022-07-26T09:54:18.366Z,98489.09
2022-07-26T09:56:52.380Z,98480.22
2022-07-26T09:59:21.931Z,98468.97
2022-07-26T10:01:51.779Z,98471.75
2022-07-26T10:04:19.655Z,98475.53
2022-07-26T10:06:46.508Z,98484.63
2022-07-26T10:09:14.705Z,98483.34
2022-07-26T10:12:00.614Z,98484.38
2022-07-26T10:14:33.100Z,98499.63
2022-07-26T10:17:00.861Z,98495.59
2022-07-26T10:19:41.796Z,98502.00
2022-07-26T10:22:30.590Z,98489.94
2022-07-26T10:25:18.321Z,98479.28
2022-07-26T10:27:52.217Z,98474.91
2022-07-26T10:30:18.974Z,98478.41
2022-07-26T10:32:51.698Z,98496.09
2022-07-26T10:35:44.615Z,98492.28
2022-07-26T10:38:22.223Z,98486.13
2022-07-26T10:40:56.270Z,98490.50
2022-07-26T10:43:40.263Z,98495.66
2022-07-26T10:46:17.891Z,98500.34
2022-07-26T10:49:03.524Z,98490.38
2022-07-26T10:51:36.463Z,98491.69
2022-07-26T10:54:05.568Z,98503.19
2022-07-26T10:56:33.628Z,98507.25
2022-07-26T10:59:01.207Z,98494.41
2022-07-26T11:01:42.704Z,98477.03
2022-07-26T11:04:19.937Z,98471.56
2022-07-26T11:06:47.020Z,98473.84
2022-07-26T11:09:13.729Z,98481.59
2022-07-26T11:11:46.606Z,98486.75
2022-07-26T11:14:16.393Z,98490.50
2022-07-26T11:16:45.658Z,98488.38
2022-07-26T11:19:16.566Z,98496.84
2022-07-26T11:21:54.141Z,98495.69
2022-07-26T11:24:22.032Z,98496.69
2022-07-26T11:26:48.741Z,98503.00
2022-07-26T11:29:16.974Z,98492.84
2022-07-26T11:31:49.570Z,98487.13
2022-07-26T11:34:23.456Z,98478.56
2022-07-26T11:36:52.082Z,98474.72
2022-07-26T11:39:48.281Z,98472.66
2022-07-26T11:42:16.905Z,98470.56
2022-07-26T11:44:46.094Z,98473.50
2022-07-26T11:47:14.752Z,98484.28
2022-07-26T11:50:00.263Z,98479.59
2022-07-26T11:52:31.897Z,98470.31
2022-07-26T11:54:59.189Z,98469.09
2022-07-26T11:57:32.726Z,98470.16
2022-07-26T12:00:00.655Z,98477.47
2022-07-26T12:02:38.167Z,98480.44
2022-07-26T12:05:20.030Z,98478.66
2022-07-26T12:08:13.244Z,98484.28
2022-07-26T12:10:39.869Z,98483.78
2022-07-26T12:13:11.987Z,98487.50
2022-07-26T12:15:46.661Z,98484.09
2022-07-26T12:18:31.149Z,98494.69
2022-07-26T12:21:08.901Z,98500.50
2022-07-26T12:23:44.097Z,98498.94
2022-07-26T12:26:20.895Z,98490.41
2022-07-26T12:28:47.474Z,98492.44
2022-07-26T12:31:32.073Z,98495.06
2022-07-26T12:33:59.084Z,98490.34
2022-07-26T12:36:28.450Z,98493.91
2022-07-26T12:39:00.324Z,98494.00
2022-07-26T12:41:34.996Z,98495.94
2022-07-26T12:44:01.762Z,98485.91
2022-07-26T12:46:32.276Z,98486.44
2022-07-26T12:49:00.635Z,98490.13
2022-07-26T12:51:27.669Z,98490.94
2022-07-26T12:53:54.509Z,98478.28
2022-07-26T12:56:21.206Z,98480.94
2022-07-26T12:58:47.722Z,98482.28
2022-07-26T13:01:14.438Z,98489.53
2022-07-26T13:03:41.164Z,98484.88
2022-07-26T13:06:07.941Z,98486.41
2022-07-26T13:08:34.523Z,98484.88
2022-07-26T13:11:01.258Z,98479.06
2022-07-26T13:13:27.894Z,98467.09
2022-07-26T13:15:54.454Z,98474.53
2022-07-26T13:18:21.126Z,98467.13
2022-07-26T13:20:47.724Z,98468.97
2022-07-26T13:23:21.365Z,98465.19
2022-07-26T13:25:49.136Z,98471.06
2022-07-26T13:28:17.170Z,98464.63
2022-07-26T13:30:45.034Z,98472.06
2022-07-26T13:33:12.269Z,98464.06
2022-07-26T13:35:41.113Z,98456.34
2022-07-26T13:38:09.041Z,98464.38
2022-07-26T13:40:36.114Z,98464.78
2022-07-26T13:43:03.017Z,98474.06
2022-07-26T13:45:29.953Z,98465.63
2022-07-26T13:47:59.873Z,98462.16
2022-07-26T13:50:28.029Z,98458.47
2022-07-26T13:52:56.231Z,98454.03
2022-07-26T13:55:23.033Z,98447.31
2022-07-26T13:57:56.582Z,98448.00
2022-07-26T14:00:29.619Z,98441.72
2022-07-26T14:03:00.399Z,98447.34
2022-07-26T14:05:28.021Z,98450.59
2022-07-26T14:07:55.040Z,98437.41
2022-07-26T14:10:23.137Z,98442.31
2022-07-26T14:12:50.369Z,98432.53
2022-07-26T14:15:22.235Z,98437.41
2022-07-26T14:17:50.247Z,98437.56
2022-07-26T14:20:20.030Z,98434.94
2022-07-26T14:22:47.304Z,98435.97
2022-07-26T14:25:14.493Z,98433.06
2022-07-26T14:27:41.072Z,98426.38
2022-07-26T14:30:07.981Z,98430.47
2022-07-26T14:32:34.613Z,98431.81
2022-07-26T14:35:01.202Z,98425.69
2022-07-26T14:37:44.121Z,98426.69
2022-07-26T14:40:16.613Z,98417.91
2022-07-26T14:42:44.520Z,98424.47
2022-07-26T14:45:11.862Z,98413.97
2022-07-26T14:47:38.664Z,98419.06
2022-07-26T14:50:08.002Z,98422.72
2022-07-26T14:52:40.033Z,98417.41
2022-07-26T14:55:07.112Z,98418.41
2022-07-26T14:57:33.919Z,98419.03
2022-07-26T15:00:07.802Z,98415.81
2022-07-26T15:02:34.486Z,98418.53
2022-07-26T15:05:01.720Z,98428.97
2022-07-26T15:07:28.282Z,98423.16
2022-07-26T15:09:55.028Z,98417.16
2022-07-26T15:12:21.782Z,98427.88
2022-07-26T15:14:48.298Z,98421.75
2022-07-26T15:17:15.026Z,98419.72
2022-07-26T15:19:41.694Z,98417.22
2022-07-26T15:22:08.589Z,98408.53
2022-07-26T15:24:39.808Z,98406.84
2022-07-26T15:27:07.030Z,98407.16
2022-07-26T15:29:33.702Z,98409.03
2022-07-26T15:32:00.336Z,98402.69
2022-07-26T15:34:26.978Z,98402.00
2022-07-26T15:36:53.667Z,98400.94
2022-07-26T15:39:20.625Z,98399.50
2022-07-26T15:41:48.281Z,98405.94
2022-07-26T15:44:19.383Z,98398.34
2022-07-26T15:46:49.152Z,98394.88
2022-07-26T15:49:17.221Z,98397.88
2022-07-26T15:51:44.403Z,98394.13
2022-07-26T15:54:13.515Z,98385.44
2022-07-26T15:56:41.044Z,98388.22
2022-07-26T15:59:08.292Z,98386.69
2022-07-26T16:01:36.283Z,98385.06
2022-07-26T16:04:05.006Z,98385.22
2022-07-26T16:06:35.234Z,98383.66
2022-07-26T16:09:19.386Z,98383.28
2022-07-26T16:11:47.792Z,98392.56
2022-07-26T16:14:15.394Z,98385.44
2022-07-26T16:16:42.240Z,98388.53
2022-07-26T16:19:09.744Z,98380.38
2022-07-26T16:21:37.419Z,98391.50
2022-07-26T16:24:07.174Z,98383.03
2022-07-26T16:26:35.539Z,98389.06
2022-07-26T16:29:02.719Z,98385.63
2022-07-26T16:31:29.584Z,98390.53
2022-07-26T16:33:56.282Z,98380.63
2022-07-26T16:36:23.124Z,98381.22
2022-07-26T16:38:49.743Z,98392.06
2022-07-26T16:41:16.386Z,98387.03
2022-07-26T16:43:43.008Z,98386.75
2022-07-26T16:46:09.639Z,98383.59
2022-07-26T16:48:36.290Z,98382.59
2022-07-26T16:51:03.088Z,98386.13
2022-07-26T16:53:29.670Z,98384.22
2022-07-26T16:55:56.231Z,98382.78
2022-07-26T16:58:22.857Z,98381.56
2022-07-26T17:00:49.903Z,98378.03
2022-07-26T17:03:16.927Z,98378.78
2022-07-26T17:05:45.835Z,98373.06
2022-07-26T17:08:12.516Z,98381.63
2022-07-26T17:10:39.182Z,98381.06
2022-07-26T17:13:05.883Z,98378.03
2022-07-26T17:15:32.926Z,98377.44
2022-07-26T17:17:59.538Z,98376.19
2022-07-26T17:20:26.510Z,98372.88
2022-07-26T17:22:53.614Z,98378.53
2022-07-26T17:25:20.312Z,98383.16
2022-07-26T17:27:46.907Z,98379.47
2022-07-26T17:30:14.024Z,98376.56
2022-07-26T17:32:40.748Z,98376.28
2022-07-26T17:35:08.175Z,98367.63
2022-07-26T17:37:35.091Z,98367.38
2022-07-26T17:40:04.015Z,98364.22
2022-07-26T17:42:30.653Z,98365.69
2022-07-26T17:44:57.478Z,98361.16
2022-07-26T17:47:29.708Z,98362.72
2022-07-26T17:50:14.071Z,98361.69
2022-07-26T17:52:46.575Z,98361.28
2022-07-26T17:55:13.143Z,98369.38
2022-07-26T17:57:39.952Z,98361.53
2022-07-26T18:00:07.188Z,98354.13
2022-07-26T18:02:33.763Z,98366.81
2022-07-26T18:05:00.434Z,98370.19
2022-07-26T18:07:27.174Z,98365.56
2022-07-26T18:09:53.760Z,98366.09
2022-07-26T18:12:20.347Z,98370.41
2022-07-26T18:14:46.947Z,98366.03
2022-07-26T18:17:13.620Z,98362.59
2022-07-26T18:19:40.254Z,98356.50
2022-07-26T18:22:06.825Z,98354.50
2022-07-26T18:24:33.377Z,98366.50
2022-07-26T18:26:59.913Z,98365.50
2022-07-26T18:29:26.521Z,98375.72
2022-07-26T18:31:53.131Z,98377.28
2022-07-26T18:34:19.747Z,98378.91
2022-07-26T18:36:46.302Z,98374.72
2022-07-26T18:39:13.538Z,98380.50
2022-07-26T18:41:40.259Z,98374.97
2022-07-26T18:44:06.807Z,98376.66
2022-07-26T18:46:33.677Z,98380.00
2022-07-26T18:49:00.587Z,98376.84
2022-07-26T18:51:32.093Z,98380.78
2022-07-26T18:53:58.772Z,98376.97
2022-07-26T18:56:25.318Z,98380.50
2022-07-26T18:58:51.918Z,98375.56
2022-07-26T19:01:18.640Z,98372.59
2022-07-26T19:03:45.508Z,98383.84
2022-07-26T19:06:13.043Z,98378.59
2022-07-26T19:08:39.566Z,98388.28
2022-07-26T19:11:06.313Z,98395.63
2022-07-26T19:13:32.913Z,98396.59
2022-07-26T19:15:59.551Z,98401.97
2022-07-26T19:18:26.179Z,98403.31
2022-07-26T19:20:52.743Z,98415.47
2022-07-26T19:23:19.344Z,98413.97
2022-07-26T19:25:47.119Z,98414.44
2022-07-26T19:28:13.870Z,98412.53
2022-07-26T19:30:40.452Z,98424.63
2022-07-26T19:33:07.401Z,98421.28
2022-07-26T19:35:33.961Z,98425.22
2022-07-26T19:38:00.583Z,98424.50
2022-07-26T19:40:27.392Z,98434.44
2022-07-26T19:42:54.075Z,98433.91
2022-07-26T19:45:20.723Z,98435.84
2022-07-26T19:47:48.036Z,98448.47
2022-07-26T19:50:14.737Z,98449.66
2022-07-26T19:52:41.385Z,98459.25
2022-07-26T19:55:08.928Z,98451.09
2022-07-26T19:57:35.620Z,98456.38
2022-07-26T20:00:07.258Z,98461.91
2022-07-26T20:02:41.065Z,98456.38
2022-07-26T20:05:12.358Z,98463.06
2022-07-26T20:07:39.168Z,98460.69
2022-07-26T20:10:06.491Z,98455.72
2022-07-26T20:12:37.226Z,98461.44
2022-07-26T20:15:04.481Z,98464.00
2022-07-26T20:17:35.375Z,98471.03
2022-07-26T20:20:03.551Z,98469.53
2022-07-26T20:22:30.177Z,98465.75
2022-07-26T20:24:56.815Z,98474.16
2022-07-26T20:27:24.412Z,98472.75
2022-07-26T20:29:51.478Z,98466.50
2022-07-26T20:32:18.315Z,98471.66
2022-07-26T20:34:45.001Z,98477.19
2022-07-26T20:37:11.847Z,98469.09
2022-07-26T20:39:38.905Z,98470.94
2022-07-26T20:42:06.614Z,98476.41
2022-07-26T20:44:35.857Z,98475.69
2022-07-26T20:47:06.144Z,98478.47
2022-07-26T20:49:32.793Z,98481.69
2022-07-26T20:52:00.116Z,98483.63
2022-07-26T20:54:26.686Z,98478.25
2022-07-26T20:56:53.355Z,98485.56
2022-07-26T20:59:20.096Z,98481.91
2022-07-26T21:01:46.737Z,98478.13
2022-07-26T21:04:13.343Z,98485.38
2022-07-26T21:06:39.901Z,98484.28
2022-07-26T21:09:08.918Z,98482.47
2022-07-26T21:11:36.360Z,98482.56
2022-07-26T21:14:03.008Z,98476.63
2022-07-26T21:16:29.637Z,98481.91
2022-07-26T21:18:56.373Z,98481.81
2022-07-26T21:21:22.992Z,98489.13
2022-07-26T21:23:49.784Z,98484.72
2022-07-26T21:26:16.357Z,98476.63
2022-07-26T21:28:42.927Z,98475.88
2022-07-26T21:31:09.487Z,98483.50
2022-07-26T21:33:36.101Z,98484.81
2022-07-26T21:36:02.797Z,98492.44
2022-07-26T21:38:31.895Z,98482.53
2022-07-26T21:40:59.219Z,98492.56
2022-07-26T21:43:26.035Z,98478.78
2022-07-26T21:45:52.651Z,98487.81
2022-07-26T21:48:19.254Z,98495.34
2022-07-26T21:50:45.835Z,98488.59
2022-07-26T21:53:13.484Z,98503.47
2022-07-26T21:55:40.489Z,98490.00
2022-07-26T21:58:07.065Z,98499.44
2022-07-26T22:00:33.783Z,98497.84
2022-07-26T22:03:00.292Z,98497.56
2022-07-26T22:05:45.199Z,98513.38
2022-07-26T22:08:14.172Z,98512.84
2022-07-26T22:10:44.681Z,98520.00
2022-07-26T22:13:11.913Z,98510.91
2022-07-26T22:15:38.493Z,98510.22
2022-07-26T22:18:05.615Z,98509.63
2022-07-26T22:20:34.429Z,98509.63
2022-07-26T22:23:06.435Z,98519.03
2022-07-26T22:25:34.035Z,98517.13
2022-07-26T22:28:01.516Z,98506.59
2022-07-26T22:30:28.830Z,98509.63
2022-07-26T22:32:56.939Z,98505.72
2022-07-26T22:35:32.342Z,98520.69
2022-07-26T22:38:05.975Z,98516.84
2022-07-26T22:40:33.073Z,98517.88
2022-07-26T22:43:00.102Z,98520.38
2022-07-26T22:45:27.380Z,98519.72
2022-07-26T22:47:55.892Z,98519.06
2022-07-26T22:50:24.945Z,98518.38
2022-07-26T22:52:52.003Z,98523.22
2022-07-26T22:55:18.705Z,98516.19
2022-07-26T22:57:46.410Z,98514.16
2022-07-26T23:00:16.340Z,98520.09
2022-07-26T23:02:43.369Z,98521.22
2022-07-26T23:05:11.413Z,98524.75
2022-07-26T23:07:38.578Z,98518.38
2022-07-26T23:10:10.180Z,98524.13
2022-07-26T23:12:37.109Z,98528.84
2022-07-26T23:15:05.845Z,98526.41
2022-07-26T23:17:32.653Z,98524.19
2022-07-26T23:19:59.248Z,98521.03
2022-07-26T23:22:25.858Z,98518.81
2022-07-26T23:24:52.450Z,98520.81
2022-07-26T23:27:20.310Z,98516.31
2022-07-26T23:29:49.002Z,98522.97
2022-07-26T23:32:16.394Z,98519.34
2022-07-26T23:34:43.392Z,98526.75
2022-07-26T23:37:10.085Z,98524.13
2022-07-26T23:39:36.945Z,98519.72
2022-07-26T23:42:03.647Z,98520.31
2022-07-26T23:44:33.945Z,98523.66
2022-07-26T23:47:00.643Z,98520.03
2022-07-26T23:49:27.401Z,98526.25
2022-07-26T23:51:54.178Z,98525.19
2022-07-26T23:54:21.168Z,98527.41
2022-07-26T23:56:47.726Z,98523.84
2022-07-26T23:59:14.990Z,98523.66
